Jonesville, Florida
Current Conditions -  °F | °C
As of 3:53 PM on Wednesday 26 Nov 2014 (Local Time) from KGNV Reporting Station
Clear Clear  
Wind Chill: 62°   Ceiling: Unl
Heat Index: 62°   Visibility: 10mi
Dew Point: 40°   Wind: 8mph
Humidity: 44%   Direction: 300°WNW
Pressure: 30.13"   Gusts: NA
Location:  29.645°N, 82.5949°W
Report Text: KGNV 262053Z 30007KT 10SM CLR 17/04 A3013 RMK AO2 SLP203 T01670044 55000
Loading
Personal Weather Stations






























Interactive Weather Map New forecast layout! Learn more

10-Day Weather Forecast

Advertisements
Track Severe Weather on mobile